CheckWX is a tool to help pilots better visualize weather data.  It is not intended as a substitute for an official pre-flight weather briefing.

22:09:12 UTC

EGSS METAR
London Stansted Airport
London, United Kingdom
Current

19 mins ago

EGSS 202150Z AUTO 26006KT 9999 NCD 16/13 Q1014
Observed
Jul-20 @ 21:50 UTC
Wind
  • 260° at 6 KTS
Visibility
10,000+ meters
Flight Rules
VFR
Cloud Levels
  • Clear skies
Temperature
16°C / 61°F
Dewpoint
13°C / 55°F
Humidity
83%
Altimeter
29.94" Hg
Pressure
1013.92 hPa
Previous

49 mins ago

EGSS 202120Z AUTO 25007KT 9999 NCD 17/13 Q1014
Observed
Jul-20 @ 21:20 UTC
Wind
  • 250° at 7 KTS
Visibility
10,000+ meters
Flight Rules
VFR
Cloud Levels
  • Clear skies
Temperature
17°C / 63°F
Dewpoint
13°C / 55°F
Humidity
77%
Altimeter
29.94" Hg
Pressure
1013.92 hPa
Previous

1 hour ago

EGSS 202050Z AUTO 26006KT 9999 NCD 17/13 Q1014
Observed
Jul-20 @ 20:50 UTC
Wind
  • 260° at 6 KTS
Visibility
10,000+ meters
Flight Rules
VFR
Cloud Levels
  • Clear skies
Temperature
17°C / 63°F
Dewpoint
13°C / 55°F
Humidity
77%
Altimeter
29.94" Hg
Pressure
1013.92 hPa